• Join FlightAware (Why Join?)
  • Login
  • US Flag 
03:37PM EDT


 

Airport Tracker/Info


-or-


 

Live Flight TrackerFlight Track Log ✈ N589H ✈ 27-Mar-2014 ✈ KPIE - MDPC / PUJ

Flight Track Log - Related Links

Times and Time Zones

All times are in EDT time to prevent confusion due to time zone crossing. See the N589H flight status page for this flight to view local times or setup timezone preferences in your user account.

Time Position Orientation Groundspeed Altitude Reporting Facility
EDT Latitude Longitude Course Direction KTS MPH feet Rate Location/Type
02:25AM 27.9000 -82.6833 180° South 164 189 800  Level Tampa TRACON
02:25AM 27.8833 -82.6833 180° South 139 160 1,000 1,920 Climbing Tampa TRACON
02:28AM 27.7992 -82.6706 172° South 171 197 5,200 1,860 Climbing Miami Center
02:29AM 27.7456 -82.6561 167° South 178 205 6,900 1,920 Climbing Miami Center
02:30AM 27.6900 -82.6369 163° South 200 230 9,100 2,100 Climbing Miami Center
02:31AM 27.6567 -82.5836 125° Southeast 200 230 11,200 1,920 Climbing Miami Center
02:32AM 27.6236 -82.5186 120° Southeast 206 237 12,900 1,740 Climbing Miami Center
02:33AM 27.5911 -82.4492 118° Southeast 230 265 14,700 1,860 Climbing Miami Center
02:34AM 27.5581 -82.3797 118° Southeast 250 288 16,700 1,560 Climbing Miami Center
02:35AM 27.5214 -82.3078 120° Southeast 260 299 17,900 1,140 Climbing Miami Center
02:36AM 27.4786 -82.2192 119° Southeast 277 319 19,000 1,080 Climbing Miami Center
02:37AM 27.4417 -82.1450 119° Southeast 301 346 20,100 1,020 Climbing Miami Center
02:38AM 27.3989 -82.0611 120° Southeast 307 353 21,100 1,080 Climbing Miami Center
02:39AM 27.3503 -81.9583 118° Southeast 330 380 22,300 1,080 Climbing Miami Center
02:40AM 27.3036 -81.8675 120° Southeast 335 386 23,300 1,020 Climbing Miami Center
02:41AM 27.2567 -81.7722 119° Southeast 346 398 24,400 1,020 Climbing Miami Center
02:42AM 27.2117 -81.6814 119° Southeast 356 410 25,400 960 Climbing Miami Center
02:43AM 27.1608 -81.5814 120° Southeast 361 415 26,400 720 Climbing Miami Center
02:44AM 27.1019 -81.4647 120° Southeast 378 435 26,900 480 Climbing Miami Center
02:45AM 27.0489 -81.3531 118° Southeast 391 450 27,400 480 Climbing Miami Center
02:46AM 26.9917 -81.2461 121° Southeast 396 456 27,900 420 Climbing Miami Center
02:47AM 26.9447 -81.1464 118° Southeast 406 467 28,300 420 Climbing Miami Center
02:48AM 26.8853 -81.0369 121° Southeast 406 467 28,800 480 Climbing Miami Center
02:49AM 26.8300 -80.9233 119° Southeast 414 476 29,300 480 Climbing Miami Center
02:50AM 26.7706 -80.8050 119° Southeast 407 468 29,800 480 Climbing Miami Center
02:51AM 26.7169 -80.7056 121° Southeast 414 476 30,300 480 Climbing Miami Center
02:52AM 26.6533 -80.5825 120° Southeast 409 471 30,800 300 Climbing Miami Center
02:53AM 26.6033 -80.4858 120° Southeast 409 471 31,000 60 Climbing Miami Center
02:54AM 26.5397 -80.3631 120° Southeast 409 471 31,000  Level Miami Center
02:55AM 26.4858 -80.2594 120° Southeast 414 476 31,000  Level Miami Center
02:56AM 26.4278 -80.1417 119° Southeast 419 482 31,000  Level Miami Center
02:57AM 26.3597 -80.0147 121° Southeast 434 499 31,000  Level Miami Center
02:58AM 26.3075 -79.9089 119° Southeast 434 499 31,000  Level Miami Center
02:59AM 26.2472 -79.7917 120° Southeast 434 499 31,000  Level Miami Center
03:00AM 26.1786 -79.6672 122° Southeast 434 499 31,000  Level Miami Center
03:01AM 26.1183 -79.5478 119° Southeast 434 499 31,000  Level Miami Center
03:03AM 25.9947 -79.3186 121° Southeast 434 499 31,000  Level Miami Center
03:04AM 25.9342 -79.2017 120° Southeast 440 506 31,000  Level Miami Center
03:05AM 25.8733 -79.0850 120° Southeast 435 501 31,000  Level Miami Center
03:06AM 25.8122 -78.9708 121° Southeast 430 495 31,000  Level Miami Center
03:07AM 25.7594 -78.8683 120° Southeast 430 495 31,000  Level Miami Center
03:08AM 25.7003 -78.7522 119° Southeast 430 495 31,000  Level Miami Center
03:09AM 25.6369 -78.6383 122° Southeast 430 495 31,000  Level Miami Center
03:10AM 25.5756 -78.5267 121° Southeast 435 501 31,000  Level Miami Center
03:11AM 25.5161 -78.4086 119° Southeast 435 501 31,000  Level Miami Center
03:12AM 25.4567 -78.2972 121° Southeast 429 494 31,000  Level Miami Center
03:13AM 25.3931 -78.1839 122° Southeast 429 494 31,000  Level Miami Center
03:14AM 25.3292 -78.0706 122° Southeast 429 494 31,000  Level Miami Center
03:15AM 25.2694 -77.9594 121° Southeast 429 494 31,000  Level Miami Center
03:16AM 25.2075 -77.8442 121° Southeast 429 494 31,000  Level Miami Center
03:17AM 25.1456 -77.7333 122° Southeast 429 494 31,000  Level Miami Center
03:18AM 25.0856 -77.6228 121° Southeast 429 494 31,000  Level Miami Center
03:19AM 25.0192 -77.5100 123° Southeast 429 494 31,000  Level Miami Center
03:20AM 24.9592 -77.3953 120° Southeast 435 501 31,000  Level Miami Center
03:21AM 24.9008 -77.2828 120° Southeast 435 501 31,000  Level Miami Center
03:22AM 24.8386 -77.1725 122° Southeast 429 494 31,000  Level Miami Center
03:23AM 24.7781 -77.0625 121° Southeast 429 494 31,000  Level Miami Center
03:24AM 24.7156 -76.9503 121° Southeast 429 494 31,000  Level Miami Center
03:25AM 24.6550 -76.8406 121° Southeast 429 494 31,000  Level Miami Center
03:26AM 24.5922 -76.7286 122° Southeast 429 494 31,000  Level Miami Center
03:27AM 24.5294 -76.6167 122° Southeast 429 494 31,000  Level Miami Center
03:28AM 24.4664 -76.5072 122° Southeast 429 494 31,000  Level Miami Center
03:29AM 24.4014 -76.3864 121° Southeast 429 494 31,000  Level Miami Center
03:30AM 24.3403 -76.2772 122° Southeast 424 488 31,000  Level Miami Center
03:31AM 24.2772 -76.1658 122° Southeast 424 488 31,000  Level Miami Center
03:32AM 24.2158 -76.0544 121° Southeast 424 488 31,000  Level Miami Center
03:33AM 24.1525 -75.9456 122° Southeast 424 488 31,000  Level Miami Center
03:34AM 24.0914 -75.8367 122° Southeast 424 488 31,000  Level Miami Center
03:35AM 24.0300 -75.7281 122° Southeast 424 488 31,000  Level Miami Center
03:36AM 23.9683 -75.6172 121° Southeast 424 488 31,000  Level Miami Center
03:37AM 23.9069 -75.5086 122° Southeast 424 488 31,000  Level Miami Center
03:38AM 23.8431 -75.3981 122° Southeast 424 488 31,000  Level Miami Center
03:39AM 23.7814 -75.2875 121° Southeast 424 488 31,000  Level Miami Center
03:40AM 23.7175 -75.1794 123° Southeast 424 488 31,000  Level Miami Center
03:41AM 23.6517 -75.0942 130° Southeast 424 488 31,000  Level Miami Center
03:42AM 23.5733 -74.9978 132° Southeast 419 482 31,000  Level Miami Center
03:43AM 23.4989 -74.9014 130° Southeast 419 482 31,000  Level Miami Center
03:44AM 23.4203 -74.8075 132° Southeast 419 482 31,000  Level Miami Center
03:45AM 23.3458 -74.7092 129° Southeast 419 482 31,000  Level Miami Center
03:46AM 23.2692 -74.6156 132° Southeast 419 482 31,000  Level Miami Center
03:47AM 23.1967 -74.5194 129° Southeast 419 482 31,000  Level Miami Center
03:48AM 23.1200 -74.4239 131° Southeast 419 482 31,000  Level Miami Center
03:49AM 23.0433 -74.3306 132° Southeast 419 482 31,000  Level Miami Center
03:50AM 22.9683 -74.2328 130° Southeast 419 482 31,000  Level Miami Center
03:51AM 22.8917 -74.1419 132° Southeast 419 482 31,000  Level Miami Center
03:52AM 22.8189 -74.0464 130° Southeast 414 476 31,000  Level Miami Center
03:53AM 22.7419 -73.9514 131° Southeast 414 476 31,000  Level Miami Center
03:54AM 22.6689 -73.8561 130° Southeast 414 476 31,000  Level Miami Center
03:55AM 22.5939 -73.7636 131° Southeast 414 476 31,000  Level Miami Center
03:56AM 22.5169 -73.6731 133° Southeast 409 471 31,000  Level Miami Center
03:57AM 22.4458 -73.5761 128° Southeast 409 471 31,000  Level Miami Center
03:58AM 22.3686 -73.4836 132° Southeast 409 471 31,000  Level Miami Center
03:59AM 22.2850 -73.3825 132° Southeast 409 471 31,000  Level Miami Center
04:00AM 22.2036 -73.2906 134° Southeast 409 471 31,000  Level Miami Center
04:01AM 22.1344 -73.1961 128° Southeast 409 471 31,000  Level Miami Center
04:02AM 22.0550 -73.1019 132° Southeast 409 471 31,000  Level Miami Center
04:03AM 21.9817 -73.0100 131° Southeast 409 471 31,000  Level Miami Center
04:04AM 21.9061 -72.9183 132° Southeast 409 471 31,000  Level Miami Center
04:05AM 21.8267 -72.8267 133° Southeast 409 471 31,000  Level Miami Center
04:06AM 21.7531 -72.7353 131° Southeast 409 471 31,000  Level Miami Center
04:07AM 21.6797 -72.6436 131° Southeast 409 471 31,000  Level Miami Center
04:08AM 21.6061 -72.5522 131° Southeast 409 471 31,000  Level Miami Center
04:09AM 21.5306 -72.4589 131° Southeast 409 471 31,000  Level Miami Center
04:10AM 21.4547 -72.3678 132° Southeast 409 471 31,000  Level Miami Center
04:11AM 21.3769 -72.2744 132° Southeast 409 471 31,000  Level Miami Center
04:12AM 21.3014 -72.1858 132° Southeast 409 471 31,000  Level Miami Center
04:13AM 21.2275 -72.0928 130° Southeast 409 471 31,000  Level Miami Center
04:14AM 21.1517 -72.0019 132° Southeast 409 471 31,000  Level Miami Center
04:15AM 21.0758 -71.9136 133° Southeast 409 471 31,000  Level Miami Center
04:16AM 20.9997 -71.8208 131° Southeast 409 471 31,000  Level Miami Center
04:17AM 20.9258 -71.7303 131° Southeast 409 471 31,000  Level Miami Center
04:18AM 20.8478 -71.6378 132° Southeast 409 471 31,000  Level Miami Center
04:19AM 20.7717 -71.5453 131° Southeast 409 471 31,000  Level Miami Center
04:20AM 20.6956 -71.4553 132° Southeast 409 471 31,000  Level Miami Center
04:21AM 20.6194 -71.3653 132° Southeast 414 476 31,000  Level Miami Center
04:22AM 20.5431 -71.2731 131° Southeast 414 476 31,000  Level Miami Center
04:23AM 20.4667 -71.1811 132° Southeast 414 476 31,000  Level Miami Center
04:24AM 20.3925 -71.0914 131° Southeast 409 471 31,000  Level Miami Center
04:25AM 20.3064 -71.0111 139° Southeast 409 471 31,000  Level Miami Center
04:26AM 20.2361 -70.9169 128° Southeast 409 471 31,000  Level Miami Center
04:27AM 20.1717 -70.8181 125° Southeast 409 471 31,000  Level Miami Center
04:28AM 20.1053 -70.7172 125° Southeast 409 471 31,000  Level Miami Center
04:29AM 20.0411 -70.6211 125° Southeast 416 479 31,000  Level Miami Center
04:30AM 19.9767 -70.5203 124° Southeast 416 479 31,000  Level Miami Center
04:32AM 19.8834 -70.3415 119° Southeast  Level FlightAware Approximate
04:39AM 19.4765 -69.7020 126° Southeast  Level FlightAware Approximate
04:40AM 19.4152 -69.6130 126° Southeast  Level FlightAware Approximate
04:41AM 19.3540 -69.5240 126° Southeast  Level FlightAware Approximate
04:42AM 19.2929 -69.4349 126° Southeast  Level FlightAware Approximate
04:43AM 19.2317 -69.3460 126° Southeast  Level FlightAware Approximate
04:44AM 19.1750 -69.2541 125° Southeast  Level FlightAware Approximate
04:45AM 19.1151 -69.1642 125° Southeast  Level FlightAware Approximate
04:46AM 19.0552 -69.0743 125° Southeast  Level FlightAware Approximate
04:47AM 18.9962 -68.9839 123° Southeast  Level FlightAware Approximate
04:48AM 18.9389 -68.8922 123° Southeast  Level FlightAware Approximate
04:49AM 18.8762 -68.8047 128° Southeast  Level FlightAware Approximate
04:50AM 18.8129 -68.7177 128° Southeast  Level FlightAware Approximate
04:51AM 18.7523 -68.6285 125° Southeast  Level FlightAware Approximate
04:52AM 18.6919 -68.5392 128° Southeast  Level FlightAware Approximate
04:53AM 18.6305 -68.4509 122° Southeast  Level FlightAware Approximate
04:54AM 18.5782 -68.3563 118° Southeast  Level FlightAware Approximate
04:55AM 18.5674 -68.3634 118° Southeast  Level Estimated
04:56AM 18.5674 -68.3634 118° Southeast  Level Estimated
04:57AM 18.5674 -68.3634 118° Southeast  Level Estimated
04:58AM 18.5674 -68.3634 118° Southeast  Level Estimated
04:59AM 18.5674 -68.3634 118° Southeast  Level Estimated
05:00AM 18.5674 -68.3634 118° Southeast  Level Estimated
05:01AM 18.5674 -68.3634 118° Southeast  Level Estimated
05:02AM 18.5674 -68.3634 118° Southeast  Level Estimated
05:03AM 18.5674 -68.3634 118° Southeast  Level Estimated
05:04AM 18.5674 -68.3634 118° Southeast  Level Estimated
05:05AM 18.5674 -68.3634 118° Southeast  Level Estimated
05:06AM 18.5674 -68.3634 118° Southeast  Level Estimated
05:07AM 18.5674 -68.3634 118° Southeast  Level Estimated
05:08AM 18.5674 -68.3634 118° Southeast  Level Estimated
05:09AM 18.5674 -68.3634 118° Southeast  Level Estimated
05:10AM 18.5674 -68.3634 118° Southeast  Level Estimated
05:11AM 18.5674 -68.3634 118° Southeast  Level Estimated
05:12AM 18.5674 -68.3634 118° Southeast  Level Estimated
05:13AM 18.5674 -68.3634 118° Southeast  Level Estimated
05:14AM 18.5674 -68.3634 118° Southeast  Level Estimated
05:15AM 18.5674 -68.3634 118° Southeast  Level Estimated
05:16AM 18.5674 -68.3634 118° Southeast  Level Estimated
05:17AM 18.5674 -68.3634 118° Southeast  Level Estimated